createdAt,value
2024-01-24T00:01:59.038Z,8.88
2024-01-24T00:04:26.100Z,8.86
2024-01-24T00:06:52.896Z,8.87
2024-01-24T00:09:19.626Z,8.83
2024-01-24T00:11:46.272Z,8.81
2024-01-24T00:14:12.915Z,8.77
2024-01-24T00:16:40.047Z,8.76
2024-01-24T00:19:06.736Z,8.75
2024-01-24T00:21:33.423Z,8.81
2024-01-24T00:24:00.220Z,8.83
2024-01-24T00:26:26.996Z,9.04
2024-01-24T00:28:53.882Z,9.02
2024-01-24T00:31:20.458Z,8.99
2024-01-24T00:33:47.328Z,8.93
2024-01-24T00:36:14.002Z,8.79
2024-01-24T00:38:40.588Z,8.88
2024-01-24T00:41:07.537Z,8.82
2024-01-24T00:43:34.184Z,8.74
2024-01-24T00:46:00.810Z,8.67
2024-01-24T00:48:27.436Z,8.60
2024-01-24T00:50:54.730Z,8.58
2024-01-24T00:53:22.310Z,8.54
2024-01-24T00:55:50.017Z,8.48
2024-01-24T00:58:16.552Z,8.46
2024-01-24T01:00:43.271Z,8.45
2024-01-24T01:03:10.110Z,8.40
2024-01-24T01:05:37.809Z,8.38
2024-01-24T01:08:06.473Z,8.34
2024-01-24T01:10:33.106Z,8.35
2024-01-24T01:12:59.712Z,8.29
2024-01-24T01:15:26.541Z,8.30
2024-01-24T01:17:53.255Z,8.29
2024-01-24T01:20:22.644Z,8.36
2024-01-24T01:22:49.198Z,8.29
2024-01-24T01:25:15.773Z,8.19
2024-01-24T01:27:42.336Z,8.16
2024-01-24T01:30:09.332Z,8.10
2024-01-24T01:32:36.008Z,8.06
2024-01-24T01:35:02.552Z,8.01
2024-01-24T01:37:29.205Z,8.04
2024-01-24T01:39:56.390Z,8.04
2024-01-24T01:42:23.081Z,8.02
2024-01-24T01:44:49.925Z,8.04
2024-01-24T01:47:17.542Z,8.02
2024-01-24T01:49:45.487Z,8.04
2024-01-24T01:52:13.112Z,8.14
2024-01-24T01:54:41.295Z,8.05
2024-01-24T01:57:10.033Z,7.99
2024-01-24T01:59:37.718Z,7.99
2024-01-24T02:02:05.190Z,7.92
2024-01-24T02:04:31.855Z,7.92
2024-01-24T02:06:59.188Z,7.89
2024-01-24T02:09:26.161Z,7.89
2024-01-24T02:11:52.688Z,7.86
2024-01-24T02:14:19.345Z,7.85
2024-01-24T02:16:45.979Z,7.91
2024-01-24T02:19:12.671Z,7.86
2024-01-24T02:21:39.556Z,7.85
2024-01-24T02:24:11.420Z,7.90
2024-01-24T02:26:37.980Z,7.90
2024-01-24T02:29:05.351Z,7.91
2024-01-24T02:31:32.326Z,7.99
2024-01-24T02:33:58.949Z,7.94
2024-01-24T02:36:25.566Z,7.89
2024-01-24T02:38:52.874Z,7.86
2024-01-24T02:41:21.143Z,7.89
2024-01-24T02:43:48.096Z,7.84
2024-01-24T02:46:14.717Z,7.82
2024-01-24T02:48:41.894Z,7.78
2024-01-24T02:51:08.444Z,7.82
2024-01-24T02:53:34.983Z,7.72
2024-01-24T02:56:01.581Z,7.64
2024-01-24T02:58:28.135Z,7.61
2024-01-24T03:00:54.744Z,7.61
2024-01-24T03:03:21.418Z,7.73
2024-01-24T03:05:48.083Z,7.73
2024-01-24T03:08:14.703Z,7.74
2024-01-24T03:10:41.311Z,7.78
2024-01-24T03:13:07.908Z,7.94
2024-01-24T03:15:34.921Z,7.96
2024-01-24T03:18:01.605Z,8.09
2024-01-24T03:20:28.221Z,8.23
2024-01-24T03:22:54.779Z,8.06
2024-01-24T03:25:21.366Z,7.86
2024-01-24T03:27:48.032Z,7.94
2024-01-24T03:30:15.171Z,8.05
2024-01-24T03:32:43.378Z,8.05
2024-01-24T03:35:11.461Z,8.04
2024-01-24T03:37:38.136Z,8.15
2024-01-24T03:40:05.471Z,8.19
2024-01-24T03:42:32.569Z,8.19
2024-01-24T03:44:59.146Z,8.17
2024-01-24T03:47:25.731Z,8.21
2024-01-24T03:49:52.257Z,8.29
2024-01-24T03:52:18.759Z,8.33
2024-01-24T03:54:45.360Z,8.20
2024-01-24T03:57:11.954Z,8.20
2024-01-24T03:59:39.073Z,8.25
2024-01-24T04:02:05.836Z,8.30
2024-01-24T04:04:32.583Z,8.24
2024-01-24T04:06:59.250Z,8.30
2024-01-24T04:09:25.930Z,8.35
2024-01-24T04:11:52.471Z,8.28
2024-01-24T04:14:19.062Z,8.32
2024-01-24T04:16:45.617Z,8.30
2024-01-24T04:19:12.274Z,8.30
2024-01-24T04:21:44.274Z,8.35
2024-01-24T04:24:10.990Z,8.41
2024-01-24T04:26:37.998Z,8.44
2024-01-24T04:29:04.770Z,8.43
2024-01-24T04:31:31.315Z,8.44
2024-01-24T04:33:57.986Z,8.44
2024-01-24T04:36:24.632Z,8.48
2024-01-24T04:38:51.175Z,8.55
2024-01-24T04:41:17.994Z,8.54
2024-01-24T04:43:44.575Z,8.54
2024-01-24T04:46:15.259Z,8.55
2024-01-24T04:48:43.402Z,8.58
2024-01-24T04:51:12.415Z,8.59
2024-01-24T04:53:40.368Z,8.65
2024-01-24T04:56:07.204Z,8.54
2024-01-24T04:58:33.861Z,8.53
2024-01-24T05:01:01.738Z,8.62
2024-01-24T05:03:28.834Z,8.60
2024-01-24T05:06:01.269Z,8.55
2024-01-24T05:08:34.036Z,8.57
2024-01-24T05:11:00.679Z,8.57
2024-01-24T05:13:27.215Z,8.52
2024-01-24T05:15:53.863Z,8.55
2024-01-24T05:18:21.330Z,8.60
2024-01-24T05:20:48.529Z,8.55
2024-01-24T05:23:16.050Z,8.57
2024-01-24T05:25:44.157Z,8.66
2024-01-24T05:28:12.625Z,8.64
2024-01-24T05:30:39.913Z,8.68
2024-01-24T05:33:06.610Z,8.68
2024-01-24T05:35:34.183Z,8.69
2024-01-24T05:38:01.145Z,8.66
2024-01-24T05:40:27.929Z,8.56
2024-01-24T05:42:54.770Z,8.58
2024-01-24T05:45:21.492Z,8.55
2024-01-24T05:47:48.262Z,8.59
2024-01-24T05:50:15.421Z,8.62
2024-01-24T05:52:45.655Z,8.59
2024-01-24T05:55:13.527Z,8.63
2024-01-24T05:57:41.811Z,8.63
2024-01-24T06:00:11.008Z,8.66
2024-01-24T06:02:37.926Z,8.75
2024-01-24T06:05:04.910Z,8.73
2024-01-24T06:07:32.473Z,8.79
2024-01-24T06:09:59.486Z,8.76
2024-01-24T06:12:26.085Z,8.76
2024-01-24T06:14:55.515Z,8.68
2024-01-24T06:17:25.945Z,8.64
2024-01-24T06:19:52.953Z,8.63
2024-01-24T06:22:19.578Z,8.66
2024-01-24T06:24:46.324Z,8.60
2024-01-24T06:27:13.433Z,8.72
2024-01-24T06:30:16.282Z,8.62
2024-01-24T06:32:26.829Z,8.53
2024-01-24T06:34:53.445Z,8.53
2024-01-24T06:37:20.077Z,8.44
2024-01-24T06:39:47.078Z,8.38
2024-01-24T06:42:13.682Z,8.53
2024-01-24T06:44:40.298Z,8.59
2024-01-24T06:47:07.077Z,8.56
2024-01-24T06:49:33.812Z,8.56
2024-01-24T06:52:00.672Z,8.53
2024-01-24T06:54:27.361Z,8.70
2024-01-24T06:56:54.002Z,8.72
2024-01-24T06:59:21.522Z,8.60
2024-01-24T07:01:48.392Z,8.53
2024-01-24T07:04:15.017Z,8.58
2024-01-24T07:06:41.711Z,8.53
2024-01-24T07:09:08.416Z,8.47
2024-01-24T07:11:34.980Z,8.42
2024-01-24T07:14:01.511Z,8.38
2024-01-24T07:16:28.237Z,8.34
2024-01-24T07:18:54.841Z,8.34
2024-01-24T07:21:21.488Z,8.36
2024-01-24T07:23:48.257Z,8.33
2024-01-24T07:26:14.959Z,8.30
2024-01-24T07:28:41.538Z,8.33
2024-01-24T07:31:08.318Z,8.27
2024-01-24T07:33:35.026Z,8.26
2024-01-24T07:36:01.635Z,8.18
2024-01-24T07:38:28.212Z,8.25
2024-01-24T07:40:54.754Z,8.35
2024-01-24T07:43:22.400Z,8.40
2024-01-24T07:45:49.536Z,8.44
2024-01-24T07:48:17.179Z,8.45
2024-01-24T07:50:44.012Z,8.45
2024-01-24T07:53:11.183Z,8.58
2024-01-24T07:55:51.055Z,8.70
2024-01-24T07:58:22.821Z,8.47
2024-01-24T08:00:50.188Z,8.42
2024-01-24T08:03:18.287Z,8.45
2024-01-24T08:05:45.240Z,8.45
2024-01-24T08:08:11.998Z,8.58
2024-01-24T08:10:39.011Z,8.58
2024-01-24T08:13:05.735Z,8.66
2024-01-24T08:15:32.500Z,8.77
2024-01-24T08:17:59.842Z,8.84
2024-01-24T08:20:26.909Z,8.85
2024-01-24T08:22:53.633Z,8.89
2024-01-24T08:25:20.195Z,8.87
2024-01-24T08:27:47.190Z,8.92
2024-01-24T08:30:14.042Z,8.92
2024-01-24T08:32:42.940Z,8.98
2024-01-24T08:35:10.168Z,8.94
2024-01-24T08:37:36.761Z,8.97
2024-01-24T08:40:04.088Z,9.07
2024-01-24T08:42:30.910Z,9.05
2024-01-24T08:44:57.721Z,9.03
2024-01-24T08:47:24.327Z,8.94
2024-01-24T08:49:52.131Z,9.07
2024-01-24T08:52:18.792Z,9.17
2024-01-24T08:54:45.412Z,9.30
2024-01-24T08:57:12.546Z,9.26
2024-01-24T08:59:39.864Z,9.38
2024-01-24T09:02:08.580Z,9.17
2024-01-24T09:04:37.837Z,9.30
2024-01-24T09:07:05.256Z,9.36
2024-01-24T09:09:34.484Z,9.30
2024-01-24T09:12:01.505Z,9.10
2024-01-24T09:14:28.142Z,9.23
2024-01-24T09:16:55.993Z,9.36
2024-01-24T09:19:23.277Z,9.44
2024-01-24T09:21:51.390Z,9.45
2024-01-24T09:24:18.182Z,9.39
2024-01-24T09:26:44.971Z,9.54
2024-01-24T09:29:13.663Z,9.66
2024-01-24T09:31:46.664Z,9.76
2024-01-24T09:34:14.124Z,9.59
2024-01-24T09:36:41.195Z,9.42
2024-01-24T09:39:10.389Z,9.50
2024-01-24T09:41:42.145Z,9.67
2024-01-24T09:44:09.713Z,9.72
2024-01-24T09:46:41.653Z,9.86
2024-01-24T09:49:09.068Z,9.98
2024-01-24T09:51:36.425Z,10.02
2024-01-24T09:54:07.983Z,10.04
2024-01-24T09:56:36.817Z,10.10
2024-01-24T09:59:08.880Z,10.16
2024-01-24T10:01:37.410Z,10.23
2024-01-24T10:04:04.416Z,10.32
2024-01-24T10:06:32.082Z,10.36
2024-01-24T10:08:59.035Z,10.29
2024-01-24T10:11:28.917Z,10.33
2024-01-24T10:13:58.888Z,10.36
2024-01-24T10:16:27.532Z,10.48
2024-01-24T10:18:58.843Z,10.60
2024-01-24T10:21:27.523Z,10.61
2024-01-24T10:23:56.336Z,10.78
2024-01-24T10:26:23.239Z,10.87
2024-01-24T10:28:50.424Z,10.93
2024-01-24T10:31:21.451Z,11.02
2024-01-24T10:33:50.089Z,11.09
2024-01-24T10:36:26.129Z,11.25
2024-01-24T10:39:04.797Z,11.45
2024-01-24T10:41:33.146Z,11.47
2024-01-24T10:44:07.331Z,11.49
2024-01-24T10:46:37.519Z,11.41
2024-01-24T10:49:05.931Z,11.42
2024-01-24T10:51:33.918Z,11.42
2024-01-24T10:54:03.848Z,11.32
2024-01-24T10:56:31.256Z,11.39
2024-01-24T10:59:01.193Z,11.42
2024-01-24T11:01:27.922Z,11.40
2024-01-24T11:03:56.898Z,11.35
2024-01-24T11:06:27.486Z,11.45
2024-01-24T11:09:27.067Z,11.50
2024-01-24T11:11:57.404Z,11.49
2024-01-24T11:14:32.081Z,11.60
2024-01-24T11:17:00.121Z,11.73
2024-01-24T11:19:28.549Z,11.80
2024-01-24T11:22:01.442Z,11.90
2024-01-24T11:24:47.550Z,11.96
2024-01-24T11:27:36.261Z,12.11
2024-01-24T11:30:13.014Z,12.25
2024-01-24T11:32:45.488Z,12.38
2024-01-24T11:35:38.172Z,12.45
2024-01-24T11:38:29.717Z,12.46
2024-01-24T11:41:01.833Z,12.44
2024-01-24T11:43:36.769Z,12.54
2024-01-24T11:46:07.530Z,12.51
2024-01-24T11:48:40.543Z,12.46
2024-01-24T11:51:12.384Z,12.50
2024-01-24T11:53:39.054Z,12.46
2024-01-24T11:56:12.263Z,12.47
2024-01-24T11:58:38.851Z,12.52
2024-01-24T12:01:07.693Z,12.63
2024-01-24T12:03:35.140Z,12.65
2024-01-24T12:06:02.941Z,12.56
2024-01-24T12:08:30.273Z,12.59
2024-01-24T12:10:57.371Z,12.52
2024-01-24T12:13:27.173Z,12.63
2024-01-24T12:15:56.416Z,12.62
2024-01-24T12:18:24.119Z,12.67
2024-01-24T12:20:54.870Z,12.68
2024-01-24T12:23:22.850Z,12.68
2024-01-24T12:25:50.417Z,12.70
2024-01-24T12:28:22.188Z,12.75
2024-01-24T12:30:50.738Z,12.77
2024-01-24T12:33:18.689Z,12.73
2024-01-24T12:35:50.643Z,12.73
2024-01-24T12:38:17.939Z,12.75
2024-01-24T12:40:54.889Z,12.90
2024-01-24T12:43:24.061Z,12.96
2024-01-24T12:45:52.617Z,12.97
2024-01-24T12:48:22.787Z,12.94
2024-01-24T12:50:50.725Z,13.06
2024-01-24T12:53:17.475Z,13.07
2024-01-24T12:55:44.284Z,13.20
2024-01-24T12:58:11.135Z,13.25
2024-01-24T13:00:38.034Z,13.31
2024-01-24T13:03:06.493Z,13.35
2024-01-24T13:05:42.068Z,13.38
2024-01-24T13:08:13.891Z,13.50
2024-01-24T13:10:45.311Z,13.66
2024-01-24T13:13:12.758Z,13.66
2024-01-24T13:15:40.436Z,13.63
2024-01-24T13:18:08.866Z,13.68
2024-01-24T13:20:35.816Z,13.66
2024-01-24T13:23:03.093Z,13.63
2024-01-24T13:25:29.951Z,13.69
2024-01-24T13:27:57.246Z,13.77
2024-01-24T13:30:24.063Z,13.70
2024-01-24T13:32:50.846Z,13.69
2024-01-24T13:35:18.348Z,13.79
2024-01-24T13:37:45.285Z,13.75
2024-01-24T13:40:12.917Z,13.93
2024-01-24T13:42:40.494Z,14.04
2024-01-24T13:45:07.900Z,14.16
2024-01-24T13:47:34.797Z,14.26
2024-01-24T13:50:01.699Z,14.29
2024-01-24T13:52:28.775Z,14.35
2024-01-24T13:54:55.630Z,14.30
2024-01-24T13:57:22.486Z,14.32
2024-01-24T13:59:49.724Z,14.29
2024-01-24T14:02:16.672Z,14.22
2024-01-24T14:04:43.489Z,14.42
2024-01-24T14:07:11.174Z,14.56
2024-01-24T14:09:39.793Z,14.68
2024-01-24T14:12:07.762Z,14.79
2024-01-24T14:14:34.585Z,14.85
2024-01-24T14:17:01.328Z,14.84
2024-01-24T14:19:28.163Z,14.87
2024-01-24T14:21:55.257Z,14.96
2024-01-24T14:24:22.059Z,14.85
2024-01-24T14:26:49.839Z,14.84
2024-01-24T14:29:16.732Z,14.93
2024-01-24T14:31:43.564Z,15.05
2024-01-24T14:34:10.684Z,15.12
2024-01-24T14:36:38.000Z,15.31
2024-01-24T14:39:08.939Z,15.31
2024-01-24T14:41:35.578Z,15.32
2024-01-24T14:44:02.205Z,15.37
2024-01-24T14:46:29.488Z,15.30
2024-01-24T14:48:56.522Z,15.29
2024-01-24T14:51:23.640Z,15.30
2024-01-24T14:53:52.253Z,15.29
2024-01-24T14:56:18.957Z,15.29
2024-01-24T14:58:45.616Z,15.29
2024-01-24T15:01:13.797Z,15.24
2024-01-24T15:03:40.462Z,15.10
2024-01-24T15:06:07.504Z,15.04
2024-01-24T15:08:34.021Z,15.02
2024-01-24T15:11:00.702Z,14.93
2024-01-24T15:13:27.274Z,14.92
2024-01-24T15:15:53.980Z,15.00
2024-01-24T15:18:21.321Z,14.98
2024-01-24T15:20:58.927Z,14.93
2024-01-24T15:23:34.239Z,15.04
2024-01-24T15:26:01.058Z,15.14
2024-01-24T15:28:28.369Z,15.16
2024-01-24T15:30:56.891Z,15.19
2024-01-24T15:33:24.056Z,15.24
2024-01-24T15:35:51.197Z,15.28
2024-01-24T15:38:18.233Z,15.43
2024-01-24T15:40:45.406Z,15.46
2024-01-24T15:43:12.190Z,15.52
2024-01-24T15:45:39.631Z,15.55
2024-01-24T15:48:06.822Z,15.60
2024-01-24T15:50:34.177Z,15.60
2024-01-24T15:53:01.068Z,15.61
2024-01-24T15:55:27.826Z,15.55
2024-01-24T15:57:54.742Z,15.47
2024-01-24T16:00:21.837Z,15.33
2024-01-24T16:02:48.435Z,15.28
2024-01-24T16:05:18.060Z,15.33
2024-01-24T16:07:44.812Z,15.26
2024-01-24T16:10:11.570Z,15.35
2024-01-24T16:12:40.563Z,15.28
2024-01-24T16:15:07.882Z,15.32
2024-01-24T16:17:34.570Z,15.24
2024-01-24T16:20:01.362Z,15.22
2024-01-24T16:22:32.952Z,15.21
2024-01-24T16:25:03.970Z,15.10
2024-01-24T16:27:31.059Z,15.16
2024-01-24T16:29:57.866Z,15.14
2024-01-24T16:32:24.487Z,15.14
2024-01-24T16:34:51.366Z,15.05
2024-01-24T16:37:18.644Z,15.04
2024-01-24T16:39:45.695Z,15.07
2024-01-24T16:42:12.406Z,15.07
2024-01-24T16:44:38.992Z,15.04
2024-01-24T16:47:07.744Z,14.98
2024-01-24T16:49:43.556Z,14.78
2024-01-24T16:52:10.158Z,14.79
2024-01-24T16:54:36.721Z,14.83
2024-01-24T16:57:03.427Z,14.65
2024-01-24T16:59:30.064Z,14.63
2024-01-24T17:01:56.623Z,14.60
2024-01-24T17:04:23.547Z,14.68
2024-01-24T17:06:50.735Z,14.71
2024-01-24T17:09:18.697Z,14.66
2024-01-24T17:11:45.828Z,14.65
2024-01-24T17:14:14.048Z,14.58
2024-01-24T17:16:40.654Z,14.65
2024-01-24T17:19:07.350Z,14.62
2024-01-24T17:21:33.968Z,14.45
2024-01-24T17:24:00.749Z,14.47
2024-01-24T17:26:27.336Z,14.45
2024-01-24T17:28:55.810Z,14.37
2024-01-24T17:31:23.844Z,14.35
2024-01-24T17:33:51.170Z,14.37
2024-01-24T17:36:17.850Z,14.44
2024-01-24T17:38:44.631Z,14.32
2024-01-24T17:41:11.302Z,14.34
2024-01-24T17:43:37.880Z,14.28
2024-01-24T17:46:04.743Z,14.27
2024-01-24T17:48:31.540Z,14.23
2024-01-24T17:50:58.388Z,14.18
2024-01-24T17:53:24.976Z,14.14
2024-01-24T17:55:53.400Z,14.08
2024-01-24T17:58:20.217Z,14.14
2024-01-24T18:00:46.833Z,14.09
2024-01-24T18:03:13.607Z,14.01
2024-01-24T18:05:40.450Z,13.98
2024-01-24T18:08:07.643Z,13.95
2024-01-24T18:10:35.124Z,13.95
2024-01-24T18:13:02.022Z,14.04
2024-01-24T18:15:28.749Z,14.01
2024-01-24T18:17:56.470Z,13.92
2024-01-24T18:20:23.399Z,14.05
2024-01-24T18:22:49.969Z,13.92
2024-01-24T18:25:16.908Z,13.96
2024-01-24T18:27:43.563Z,13.92
2024-01-24T18:30:10.735Z,13.77
2024-01-24T18:32:37.651Z,13.82
2024-01-24T18:35:05.125Z,13.90
2024-01-24T18:37:32.703Z,13.83
2024-01-24T18:39:59.392Z,13.72
2024-01-24T18:42:26.672Z,13.69
2024-01-24T18:44:53.640Z,13.71
2024-01-24T18:47:20.547Z,13.61
2024-01-24T18:49:47.307Z,13.59
2024-01-24T18:52:14.205Z,13.57
2024-01-24T18:54:42.645Z,13.51
2024-01-24T18:57:11.245Z,13.49
2024-01-24T18:59:39.461Z,13.49
2024-01-24T19:02:07.104Z,13.44
2024-01-24T19:04:33.913Z,13.32
2024-01-24T19:07:00.908Z,13.21
2024-01-24T19:09:28.162Z,13.11
2024-01-24T19:11:55.155Z,12.91
2024-01-24T19:14:22.014Z,12.87
2024-01-24T19:16:49.273Z,12.84
2024-01-24T19:19:16.166Z,12.73
2024-01-24T19:21:44.517Z,12.67
2024-01-24T19:24:11.062Z,12.66
2024-01-24T19:26:39.376Z,12.63
2024-01-24T19:29:07.098Z,12.70
2024-01-24T19:31:34.618Z,12.62
2024-01-24T19:34:01.237Z,12.75
2024-01-24T19:36:28.469Z,12.60
2024-01-24T19:38:58.596Z,12.57
2024-01-24T19:41:26.149Z,12.59
2024-01-24T19:43:53.374Z,12.59
2024-01-24T19:46:20.224Z,12.53
2024-01-24T19:48:47.004Z,12.56
2024-01-24T19:51:13.756Z,12.54
2024-01-24T19:53:43.110Z,12.50
2024-01-24T19:56:10.134Z,12.50
2024-01-24T19:58:36.973Z,12.40
2024-01-24T20:01:05.892Z,12.31
2024-01-24T20:03:33.279Z,12.23
2024-01-24T20:06:03.026Z,12.14
2024-01-24T20:08:31.358Z,12.06
2024-01-24T20:10:58.557Z,12.00
2024-01-24T20:13:25.238Z,11.97
2024-01-24T20:15:54.189Z,11.93
2024-01-24T20:18:22.866Z,11.90
2024-01-24T20:20:49.545Z,11.87
2024-01-24T20:23:17.720Z,11.88
2024-01-24T20:25:44.271Z,11.88
2024-01-24T20:28:10.988Z,11.87
2024-01-24T20:30:37.585Z,11.85
2024-01-24T20:33:05.373Z,11.85
2024-01-24T20:35:32.985Z,11.78
2024-01-24T20:38:00.151Z,11.74
2024-01-24T20:40:26.854Z,11.71
2024-01-24T20:42:53.568Z,11.70
2024-01-24T20:45:20.164Z,11.67
2024-01-24T20:47:47.854Z,11.66
2024-01-24T20:50:17.034Z,11.64
2024-01-24T20:52:43.714Z,11.64
2024-01-24T20:55:10.427Z,11.63
2024-01-24T20:57:37.189Z,11.59
2024-01-24T21:00:04.964Z,11.58
2024-01-24T21:02:31.669Z,11.59
2024-01-24T21:04:58.512Z,11.55
2024-01-24T21:07:25.306Z,11.55
2024-01-24T21:09:52.525Z,11.54
2024-01-24T21:12:19.889Z,11.53
2024-01-24T21:14:46.494Z,11.49
2024-01-24T21:17:13.511Z,11.45
2024-01-24T21:19:40.189Z,11.40
2024-01-24T21:22:06.960Z,11.37
2024-01-24T21:24:33.681Z,11.32
2024-01-24T21:27:00.317Z,11.28
2024-01-24T21:29:26.839Z,11.26
2024-01-24T21:31:53.774Z,11.23
2024-01-24T21:34:21.096Z,11.21
2024-01-24T21:36:49.363Z,11.15
2024-01-24T21:39:17.196Z,11.13
2024-01-24T21:41:43.795Z,11.09
2024-01-24T21:44:10.825Z,11.09
2024-01-24T21:46:37.531Z,11.10
2024-01-24T21:49:04.189Z,11.07
2024-01-24T21:51:32.075Z,11.04
2024-01-24T21:53:59.037Z,11.01
2024-01-24T21:56:25.870Z,10.99
2024-01-24T21:58:56.027Z,10.98
2024-01-24T22:01:24.209Z,10.97
2024-01-24T22:03:51.217Z,10.88
2024-01-24T22:06:18.028Z,10.88
2024-01-24T22:08:44.619Z,10.88
2024-01-24T22:11:11.551Z,10.93
2024-01-24T22:13:39.061Z,10.91
2024-01-24T22:16:06.099Z,10.91
2024-01-24T22:18:37.177Z,10.87
2024-01-24T22:21:14.226Z,10.85
2024-01-24T22:23:40.861Z,10.80
2024-01-24T22:26:07.482Z,10.71
2024-01-24T22:28:34.075Z,10.64
2024-01-24T22:31:00.702Z,10.62
2024-01-24T22:33:27.468Z,10.62
2024-01-24T22:35:54.219Z,10.56
2024-01-24T22:38:20.875Z,10.53
2024-01-24T22:40:47.531Z,10.52
2024-01-24T22:43:14.424Z,10.52
2024-01-24T22:45:43.077Z,10.48
2024-01-24T22:48:10.013Z,10.47
2024-01-24T22:50:36.756Z,10.44
2024-01-24T22:53:03.379Z,10.43
2024-01-24T22:55:30.129Z,10.39
2024-01-24T22:57:57.886Z,10.34
2024-01-24T23:00:24.677Z,10.35
2024-01-24T23:02:51.431Z,10.34
2024-01-24T23:05:18.706Z,10.32
2024-01-24T23:07:45.473Z,10.29
2024-01-24T23:10:12.568Z,10.28
2024-01-24T23:12:39.637Z,10.27
2024-01-24T23:15:06.930Z,10.30
2024-01-24T23:17:33.542Z,10.28
2024-01-24T23:20:00.849Z,10.24
2024-01-24T23:22:28.898Z,10.24
2024-01-24T23:24:55.715Z,10.21
2024-01-24T23:27:22.484Z,10.22
2024-01-24T23:29:49.039Z,10.19
2024-01-24T23:32:16.561Z,10.13
2024-01-24T23:34:43.869Z,10.11
2024-01-24T23:37:10.766Z,10.10
2024-01-24T23:39:38.097Z,10.08
2024-01-24T23:42:04.928Z,10.05
2024-01-24T23:44:31.428Z,9.98
2024-01-24T23:46:57.984Z,9.94
2024-01-24T23:49:24.868Z,9.97
2024-01-24T23:51:51.860Z,9.93
2024-01-24T23:54:18.812Z,9.93
2024-01-24T23:56:45.423Z,9.92
2024-01-24T23:59:11.979Z,9.86
